首页
METAR-TAF:

METAR-TAF

机场 :

安徒生, 南卡罗来纳州, 美国

纬度: 34-29-52N, 经度: 082-42-35W, 海拔: 238米

当前天气观测

该预报发布于15分钟前的01:56 UTC
风速5节,风向西转西南
温度 23°C
湿度 89%
气压 1015 hPa
能見度: 16.1公里
散云层高于8500英尺

METAR: KAND 220156Z AUTO 24005KT 10SM SCT085 23/21 A2998 RMK AO2 LTG DSNT SE AND S RAE17 SLP142 P0000 T02280211

时间: 22:11 (02:11 UTC)

预报

该预报发布于2小时和39分钟前的23:32 UTC
预报有效从22日的 00点(UTC)到 22日的 24点(UTC)
风速8节,风向西南
能見度: 10公里
散云层高于5000英尺, 积雨云.
附近有雷暴
从 22日的 0100点(UTC)
风速5节,风向西南
能見度: 10公里
散云层高于25000英尺
从 22日的 1000点(UTC)
风速5节,风向西转西南
能見度: 9.7公里
少量云层高于500英尺
轻雾
从 22日的 1400点(UTC)
风速6节,风向西
能見度: 10公里
少量云层高于5000英尺
从 22日的 2300点(UTC)
风速6节,风向西北
能見度: 10公里
散云层高于6000英尺

TAF: KAND 212332Z 2200/2224 22008KT P6SM VCTS SCT050CB FM220100 23005KT P6SM SCT250 FM221000 24005KT 6SM BR FEW005 FM221400 28006KT P6SM FEW050 FM222300 31006KT P6SM SCT060

超过4000个机场的气象观测和天气预报(METAR&TAF报告)。

可查询的气象台以黄色和红色小点在地图上表示。

将鼠标移到小点上方,可查看气象台名称。

然后点击查看天气观测和预报。

如需切换地图:点击带黑十字的绿色按钮放大地图;点击带横线的绿色按钮缩小地图;或者点击绿色箭头查看邻近地区的地图。


METAR-TAF: